Time;durP1;ratioP1;P1;durP2;ratioP2;P2;SDS_P1;SDS_P2;PMS_P1;PMS_P2;Temp;Humidity;BMP_temperature;BMP_pressure;BME280_temperature;BME280_humidity;BME280_pressure;Samples;Min_cycle;Max_cycle;Signal;HPM_P1;HPM_P2
2021/12/08 07:07:47;;;;;;;5.40;3.47;;;19.70;49.20;;;;;;3856410;23;20099;-88
2021/12/08 07:09:25;;;;;;;7.10;3.58;;;19.80;48.60;;;;;;3855671;23;20013;-86
2021/12/08 07:10:58;;;;;;;10.10;4.72;;;19.80;48.50;;;;;;3855422;23;20328;-89
2021/12/08 07:12:32;;;;;;;12.05;4.90;;;19.80;48.00;;;;;;3854988;23;20364;-90
2021/12/08 07:14:04;;;;;;;10.20;4.88;;;19.80;47.80;;;;;;3855072;23;20021;-88
2021/12/08 07:15:46;;;;;;;6.95;4.38;;;19.80;47.70;;;;;;3834835;23;20021;-89
2021/12/08 07:17:31;;;;;;;9.73;5.53;;;19.80;47.50;;;;;;3837334;23;20158;-90
2021/12/08 07:19:22;;;;;;;15.75;4.88;;;19.90;47.70;;;;;;3836292;23;20040;-89
2021/12/08 07:21:02;;;;;;;11.07;5.10;;;19.90;47.70;;;;;;3836984;23;20647;-90
2021/12/08 07:23:04;;;;;;;9.93;4.57;;;19.90;47.90;;;;;;3837117;23;20024;-91
2021/12/08 07:24:44;;;;;;;11.05;4.65;;;19.90;47.80;;;;;;3834103;23;20090;-89
2021/12/08 07:26:19;;;;;;;10.57;5.25;;;20.00;47.50;;;;;;3836046;23;20043;-89
2021/12/08 07:30:32;;;;;;;7.88;4.53;;;20.00;47.10;;;;;;3816710;22;20024;-90
2021/12/08 07:32:18;;;;;;;11.40;5.20;;;20.10;47.00;;;;;;3777583;23;20033;-87
2021/12/08 10:12:34;;;;;;;3.75;3.05;;;22.90;46.40;;;;;;3855703;23;20005;-91
2021/12/08 10:14:09;;;;;;;12.88;3.33;;;22.90;46.00;;;;;;3854130;23;20083;-93
2021/12/08 10:15:41;;;;;;;4.50;3.20;;;22.90;46.50;;;;;;3855217;23;20024;-90
2021/12/08 10:17:13;;;;;;;4.00;3.10;;;23.00;46.50;;;;;;3857709;23;20021;-87
2021/12/08 10:18:45;;;;;;;9.60;4.05;;;23.00;44.30;;;;;;3861074;23;20020;-91
2021/12/08 10:20:31;;;;;;;5.40;3.57;;;22.90;41.40;;;;;;3861667;23;20066;-91
2021/12/08 10:22:03;;;;;;;6.60;3.33;;;22.80;41.40;;;;;;3867723;23;20047;-93
2021/12/08 10:23:37;;;;;;;6.10;3.53;;;22.80;41.60;;;;;;3861949;23;20021;-92
2021/12/08 10:25:10;;;;;;;6.47;3.60;;;22.70;41.80;;;;;;3860636;22;20021;-91
2021/12/08 10:27:07;;;;;;;3.95;3.20;;;22.70;41.80;;;;;;3863097;23;20076;-94
2021/12/08 10:28:40;;;;;;;5.00;3.60;;;22.70;41.70;;;;;;3864061;23;20080;-93
2021/12/08 10:30:45;;;;;;;3.90;3.42;;;22.60;41.90;;;;;;3856598;22;20025;-90
2021/12/08 10:32:35;;;;;;;6.47;3.50;;;22.70;42.90;;;;;;3858879;23;20092;-91
2021/12/08 10:34:22;;;;;;;5.35;3.20;;;22.80;44.00;;;;;;3858754;22;20021;-93
2021/12/08 10:36:03;;;;;;;4.30;3.28;;;22.90;44.40;;;;;;3858502;23;20497;-93
2021/12/08 10:37:36;;;;;;;5.95;3.42;;;23.00;44.70;;;;;;3871919;23;20011;-92
2021/12/08 10:39:10;;;;;;;7.55;2.80;;;23.10;45.20;;;;;;3865222;22;20074;-92
2021/12/08 10:40:57;;;;;;;5.78;3.22;;;23.10;44.80;;;;;;3860263;23;20020;-88
2021/12/08 10:42:31;;;;;;;7.57;3.47;;;23.10;44.40;;;;;;3856171;23;20063;-88
2021/12/08 10:44:13;;;;;;;4.50;3.20;;;23.20;44.30;;;;;;3857209;23;20028;-91
2021/12/08 10:45:46;;;;;;;5.18;3.30;;;23.20;44.30;;;;;;3855164;23;20016;-89
2021/12/08 10:47:21;;;;;;;6.50;3.20;;;23.20;44.30;;;;;;3856529;23;20404;-89
2021/12/08 10:48:54;;;;;;;4.43;3.08;;;23.20;44.30;;;;;;3857136;23;20020;-89
2021/12/08 10:54:26;;;;;;;6.80;3.22;;;23.20;44.30;;;;;;3857580;23;20052;-89
2021/12/08 10:55:59;;;;;;;6.75;2.90;;;23.20;44.30;;;;;;3856726;23;20043;-90
2021/12/08 10:57:32;;;;;;;5.07;2.55;;;23.20;44.30;;;;;;3856294;23;20024;-89
2021/12/08 10:59:04;;;;;;;4.45;2.75;;;23.20;44.20;;;;;;3856227;23;20017;-89
2021/12/08 11:00:37;;;;;;;3.90;3.17;;;23.20;44.10;;;;;;3854418;23;20071;-89
2021/12/08 11:02:12;;;;;;;4.20;2.80;;;23.20;44.20;;;;;;3856861;23;20017;-90
2021/12/08 11:03:44;;;;;;;5.13;3.05;;;23.20;44.10;;;;;;3855130;23;20028;-90
2021/12/08 11:05:38;;;;;;;3.67;3.00;;;23.20;44.10;;;;;;3854744;22;20071;-90
2021/12/08 11:07:10;;;;;;;3.15;2.80;;;23.30;43.90;;;;;;3857295;23;20040;-90
2021/12/08 11:08:44;;;;;;;3.53;2.83;;;23.30;44.10;;;;;;3856733;23;20025;-92
2021/12/08 11:10:19;;;;;;;4.53;3.35;;;23.30;44.10;;;;;;3859434;22;20016;-93
2021/12/08 11:11:52;;;;;;;6.40;3.13;;;23.30;44.80;;;;;;3858225;23;20020;-93
2021/12/08 11:13:25;;;;;;;3.97;3.00;;;23.30;44.70;;;;;;3858195;23;20020;-93
2021/12/08 11:14:59;;;;;;;4.05;2.78;;;23.40;44.80;;;;;;3857114;22;20040;-92
2021/12/08 11:16:42;;;;;;;3.80;2.67;;;23.50;44.40;;;;;;3855913;23;20078;-92
2021/12/08 11:18:21;;;;;;;5.25;3.08;;;23.40;44.20;;;;;;3858860;23;20025;-91
2021/12/08 11:20:15;;;;;;;5.07;2.63;;;23.40;44.30;;;;;;3856923;22;20040;-92
2021/12/08 11:21:49;;;;;;;3.55;2.75;;;23.50;44.60;;;;;;3859864;23;20043;-90
2021/12/08 11:25:45;;;;;;;4.05;2.80;;;23.50;44.50;;;;;;3805146;23;20027;-92
2021/12/08 11:27:29;;;;;;;3.78;2.85;;;23.50;44.70;;;;;;3857105;23;20040;-91
2021/12/08 11:29:03;;;;;;;4.68;2.60;;;23.50;44.70;;;;;;3856619;23;20023;-91
2021/12/08 11:32:29;;;;;;;3.10;2.63;;;23.60;44.80;;;;;;3844518;23;20021;-90
2021/12/08 11:34:05;;;;;;;5.93;3.13;;;23.60;44.80;;;;;;3858940;23;20059;-92
2021/12/08 11:35:37;;;;;;;3.65;2.90;;;23.60;44.80;;;;;;3857201;23;20020;-92
2021/12/08 11:37:12;;;;;;;4.50;2.58;;;23.60;44.80;;;;;;3857167;23;20336;-91
2021/12/08 11:38:46;;;;;;;3.65;2.60;;;23.60;44.90;;;;;;3858894;23;20096;-92
2021/12/08 11:40:18;;;;;;;6.95;3.00;;;23.60;44.90;;;;;;3856769;22;20036;-90
2021/12/08 11:41:50;;;;;;;5.63;3.00;;;23.70;45.10;;;;;;3856492;23;20016;-90
2021/12/08 11:43:29;;;;;;;5.10;2.65;;;23.70;44.90;;;;;;3857647;23;20021;-90
2021/12/08 11:45:02;;;;;;;3.13;2.63;;;23.80;44.90;;;;;;3856798;22;20024;-90
2021/12/08 11:46:37;;;;;;;4.30;2.90;;;23.80;44.70;;;;;;3855792;23;20021;-89
2021/12/08 11:48:21;;;;;;;4.65;2.80;;;23.80;44.60;;;;;;3857580;23;20510;-89
2021/12/08 11:49:56;;;;;;;2.88;2.55;;;23.80;44.40;;;;;;3855533;23;20020;-88
2021/12/08 11:51:28;;;;;;;4.88;2.80;;;23.80;44.40;;;;;;3856904;23;20023;-89
2021/12/08 11:52:59;;;;;;;3.10;2.80;;;23.80;44.30;;;;;;3856304;23;20017;-90
2021/12/08 11:54:34;;;;;;;3.22;2.53;;;23.80;44.20;;;;;;3855895;22;20017;-91
2021/12/08 11:56:06;;;;;;;3.92;2.70;;;23.90;44.20;;;;;;3856899;23;20016;-89
2021/12/08 11:57:40;;;;;;;5.28;2.88;;;23.80;44.10;;;;;;3856080;23;20025;-89
2021/12/08 11:59:13;;;;;;;5.72;3.00;;;23.90;44.10;;;;;;3857183;22;20329;-89
2021/12/08 12:00:50;;;;;;;6.40;3.17;;;23.90;41.40;;;;;;3856733;23;20107;-94
2021/12/08 12:02:23;;;;;;;6.93;3.03;;;23.70;39.90;;;;;;3856719;23;20032;-90
2021/12/08 12:04:01;;;;;;;8.15;2.85;;;23.70;41.50;;;;;;3856632;23;20378;-94
2021/12/08 12:05:36;;;;;;;5.63;3.10;;;23.70;42.30;;;;;;3862692;22;20021;-94
2021/12/08 12:07:10;;;;;;;4.38;3.03;;;23.80;42.50;;;;;;3858624;23;20491;-88
2021/12/08 12:08:42;;;;;;;3.22;2.85;;;23.90;42.90;;;;;;3857117;23;20095;-91
2021/12/08 12:10:16;;;;;;;3.63;2.80;;;23.80;43.30;;;;;;3863714;22;20035;-93
2021/12/08 12:11:52;;;;;;;4.65;2.63;;;23.90;43.50;;;;;;3861112;23;20479;-89
2021/12/08 12:13:25;;;;;;;4.22;2.80;;;23.90;43.90;;;;;;3858357;23;20024;-92
2021/12/08 12:14:57;;;;;;;4.10;2.90;;;24.00;44.60;;;;;;3859695;22;20043;-90
2021/12/08 12:16:29;;;;;;;3.08;2.40;;;24.00;44.60;;;;;;3855446;23;20048;-93
2021/12/08 12:18:01;;;;;;;3.83;2.67;;;24.00;44.30;;;;;;3857781;23;20352;-92
2021/12/08 12:19:34;;;;;;;6.77;2.87;;;24.00;44.20;;;;;;3855082;22;20070;-90
2021/12/08 12:21:11;;;;;;;4.50;2.70;;;24.00;44.40;;;;;;3856049;23;20020;-92
2021/12/08 12:22:50;;;;;;;5.70;2.90;;;24.10;44.30;;;;;;3855748;23;20020;-91
2021/12/08 12:24:37;;;;;;;5.25;2.72;;;24.10;44.40;;;;;;3854589;22;20017;-90
2021/12/08 12:26:13;;;;;;;3.85;2.28;;;24.10;44.80;;;;;;3855119;23;20025;-89
2021/12/08 12:27:48;;;;;;;3.58;2.63;;;24.10;44.90;;;;;;3855673;23;20020;-89
2021/12/08 12:29:31;;;;;;;7.18;3.30;;;24.10;44.80;;;;;;3855119;23;20096;-89
2021/12/08 12:31:09;;;;;;;7.93;2.65;;;24.10;45.10;;;;;;3855460;23;20099;-90
2021/12/08 12:32:45;;;;;;;5.13;2.65;;;24.10;44.80;;;;;;3855788;23;20403;-90
2021/12/08 12:34:24;;;;;;;4.90;2.63;;;24.20;44.80;;;;;;3854499;22;20017;-89
2021/12/08 12:35:57;;;;;;;3.75;2.40;;;24.20;44.60;;;;;;3855640;23;20034;-88
2021/12/08 12:37:32;;;;;;;10.27;3.20;;;24.20;44.70;;;;;;3854721;23;20016;-89
2021/12/08 12:39:11;;;;;;;11.27;3.67;;;24.20;45.00;;;;;;3855679;23;20027;-88
2021/12/08 12:40:46;;;;;;;25.10;4.57;;;24.20;45.10;;;;;;3855133;23;20021;-92
2021/12/08 12:42:19;;;;;;;17.58;3.38;;;24.20;45.20;;;;;;3855219;23;20078;-89
2021/12/08 12:43:51;;;;;;;24.50;3.97;;;24.20;45.10;;;;;;3855953;23;20027;-89
2021/12/08 12:45:23;;;;;;;17.25;3.83;;;24.30;45.50;;;;;;3853049;23;20028;-87
2021/12/08 12:47:23;;;;;;;23.50;3.75;;;24.30;45.60;;;;;;3855905;23;20067;-89
2021/12/08 12:48:55;;;;;;;23.48;3.75;;;24.30;45.50;;;;;;3856169;23;20066;-90
2021/12/08 12:50:27;;;;;;;13.93;3.60;;;24.30;45.30;;;;;;3856136;22;20096;-90
2021/12/08 13:36:36;;;;;;;9.57;2.65;;;24.70;45.90;;;;;;3815712;23;20028;-90
